sensor_id;sensor_type;location;lat;lon;timestamp;P1;durP1;ratioP1;P2;durP2;ratioP2
80778;SDS011;70170;47.856;10.956;2023-08-07T00:01:48;1.92;;;1.33;;
80778;SDS011;70170;47.856;10.956;2023-08-07T00:04:14;1.30;;;1.13;;
80778;SDS011;70170;47.856;10.956;2023-08-07T00:06:39;1.73;;;1.10;;
80778;SDS011;70170;47.856;10.956;2023-08-07T00:09:04;1.33;;;1.08;;
80778;SDS011;70170;47.856;10.956;2023-08-07T00:11:30;1.63;;;1.40;;
80778;SDS011;70170;47.856;10.956;2023-08-07T00:13:55;1.30;;;1.20;;
80778;SDS011;70170;47.856;10.956;2023-08-07T00:16:21;1.17;;;1.10;;
80778;SDS011;70170;47.856;10.956;2023-08-07T00:18:46;1.38;;;1.27;;
80778;SDS011;70170;47.856;10.956;2023-08-07T00:21:11;1.33;;;1.23;;
80778;SDS011;70170;47.856;10.956;2023-08-07T00:23:37;1.52;;;1.40;;
80778;SDS011;70170;47.856;10.956;2023-08-07T00:26:02;1.75;;;1.25;;
80778;SDS011;70170;47.856;10.956;2023-08-07T00:28:27;1.90;;;1.30;;
80778;SDS011;70170;47.856;10.956;2023-08-07T00:30:54;2.83;;;1.20;;
80778;SDS011;70170;47.856;10.956;2023-08-07T00:33:19;3.92;;;1.50;;
80778;SDS011;70170;47.856;10.956;2023-08-07T00:35:45;2.03;;;1.40;;
80778;SDS011;70170;47.856;10.956;2023-08-07T00:38:10;2.50;;;1.50;;
80778;SDS011;70170;47.856;10.956;2023-08-07T00:40:36;2.85;;;1.45;;
80778;SDS011;70170;47.856;10.956;2023-08-07T00:43:02;1.38;;;1.30;;
80778;SDS011;70170;47.856;10.956;2023-08-07T00:45:27;2.03;;;1.50;;
80778;SDS011;70170;47.856;10.956;2023-08-07T00:47:53;3.05;;;1.73;;
80778;SDS011;70170;47.856;10.956;2023-08-07T00:50:18;1.15;;;1.05;;
80778;SDS011;70170;47.856;10.956;2023-08-07T00:52:44;6.35;;;1.77;;
80778;SDS011;70170;47.856;10.956;2023-08-07T00:55:09;1.50;;;1.40;;
80778;SDS011;70170;47.856;10.956;2023-08-07T00:57:34;5.40;;;1.70;;
80778;SDS011;70170;47.856;10.956;2023-08-07T01:00:00;1.80;;;1.55;;
80778;SDS011;70170;47.856;10.956;2023-08-07T01:02:27;3.63;;;1.80;;
80778;SDS011;70170;47.856;10.956;2023-08-07T01:04:52;1.67;;;1.00;;
80778;SDS011;70170;47.856;10.956;2023-08-07T01:07:17;1.10;;;1.10;;
80778;SDS011;70170;47.856;10.956;2023-08-07T01:09:43;1.25;;;1.20;;
80778;SDS011;70170;47.856;10.956;2023-08-07T01:12:15;1.20;;;1.10;;
80778;SDS011;70170;47.856;10.956;2023-08-07T01:17:15;1.10;;;0.98;;
80778;SDS011;70170;47.856;10.956;2023-08-07T01:19:42;1.00;;;1.00;;
80778;SDS011;70170;47.856;10.956;2023-08-07T01:24:33;1.80;;;1.35;;
80778;SDS011;70170;47.856;10.956;2023-08-07T01:27:09;1.88;;;1.63;;
80778;SDS011;70170;47.856;10.956;2023-08-07T01:29:44;1.85;;;1.40;;
80778;SDS011;70170;47.856;10.956;2023-08-07T01:32:14;4.03;;;1.92;;
80778;SDS011;70170;47.856;10.956;2023-08-07T01:34:47;1.50;;;1.40;;
80778;SDS011;70170;47.856;10.956;2023-08-07T01:37:14;1.40;;;1.30;;
80778;SDS011;70170;47.856;10.956;2023-08-07T01:39:40;1.50;;;1.40;;
80778;SDS011;70170;47.856;10.956;2023-08-07T01:42:07;2.65;;;1.35;;
80778;SDS011;70170;47.856;10.956;2023-08-07T01:44:32;4.07;;;1.52;;
80778;SDS011;70170;47.856;10.956;2023-08-07T01:46:58;1.42;;;1.27;;
80778;SDS011;70170;47.856;10.956;2023-08-07T01:49:23;1.63;;;1.45;;
80778;SDS011;70170;47.856;10.956;2023-08-07T01:51:49;2.03;;;1.30;;
80778;SDS011;70170;47.856;10.956;2023-08-07T01:54:14;1.48;;;1.10;;
80778;SDS011;70170;47.856;10.956;2023-08-07T01:56:39;3.03;;;1.30;;
80778;SDS011;70170;47.856;10.956;2023-08-07T01:59:05;1.73;;;1.25;;
80778;SDS011;70170;47.856;10.956;2023-08-07T02:01:30;1.75;;;1.33;;
80778;SDS011;70170;47.856;10.956;2023-08-07T02:03:55;1.55;;;1.40;;
80778;SDS011;70170;47.856;10.956;2023-08-07T02:06:21;5.40;;;1.30;;
80778;SDS011;70170;47.856;10.956;2023-08-07T02:08:46;1.95;;;1.30;;
80778;SDS011;70170;47.856;10.956;2023-08-07T02:11:12;1.50;;;1.08;;
80778;SDS011;70170;47.856;10.956;2023-08-07T02:13:38;2.45;;;1.20;;
80778;SDS011;70170;47.856;10.956;2023-08-07T02:16:03;2.35;;;1.75;;
80778;SDS011;70170;47.856;10.956;2023-08-07T02:18:28;1.77;;;1.40;;
80778;SDS011;70170;47.856;10.956;2023-08-07T02:20:53;1.63;;;1.00;;
80778;SDS011;70170;47.856;10.956;2023-08-07T02:23:19;1.63;;;1.30;;
80778;SDS011;70170;47.856;10.956;2023-08-07T02:25:44;4.95;;;1.10;;
80778;SDS011;70170;47.856;10.956;2023-08-07T02:28:10;4.40;;;1.40;;
80778;SDS011;70170;47.856;10.956;2023-08-07T02:30:36;1.10;;;1.10;;
80778;SDS011;70170;47.856;10.956;2023-08-07T02:33:01;1.10;;;1.08;;
80778;SDS011;70170;47.856;10.956;2023-08-07T02:35:26;1.30;;;1.20;;
80778;SDS011;70170;47.856;10.956;2023-08-07T02:37:51;2.08;;;1.13;;
80778;SDS011;70170;47.856;10.956;2023-08-07T02:40:17;1.23;;;1.13;;
80778;SDS011;70170;47.856;10.956;2023-08-07T02:42:44;2.80;;;1.60;;
80778;SDS011;70170;47.856;10.956;2023-08-07T02:45:09;1.48;;;1.13;;
80778;SDS011;70170;47.856;10.956;2023-08-07T02:47:35;1.80;;;1.30;;
80778;SDS011;70170;47.856;10.956;2023-08-07T02:50:00;1.63;;;1.52;;
80778;SDS011;70170;47.856;10.956;2023-08-07T02:52:25;2.67;;;1.50;;
80778;SDS011;70170;47.856;10.956;2023-08-07T02:54:51;1.35;;;1.25;;
80778;SDS011;70170;47.856;10.956;2023-08-07T02:57:16;1.30;;;1.20;;
80778;SDS011;70170;47.856;10.956;2023-08-07T02:59:41;2.60;;;1.35;;
80778;SDS011;70170;47.856;10.956;2023-08-07T03:02:07;1.95;;;1.40;;
80778;SDS011;70170;47.856;10.956;2023-08-07T03:04:32;1.75;;;1.63;;
80778;SDS011;70170;47.856;10.956;2023-08-07T03:06:57;3.15;;;1.48;;
80778;SDS011;70170;47.856;10.956;2023-08-07T03:09:22;5.55;;;1.50;;
80778;SDS011;70170;47.856;10.956;2023-08-07T03:11:48;3.67;;;1.67;;
80778;SDS011;70170;47.856;10.956;2023-08-07T03:14:13;1.52;;;1.42;;
80778;SDS011;70170;47.856;10.956;2023-08-07T03:16:39;1.73;;;1.63;;
80778;SDS011;70170;47.856;10.956;2023-08-07T03:19:04;2.17;;;1.42;;
80778;SDS011;70170;47.856;10.956;2023-08-07T03:21:29;1.73;;;1.40;;
80778;SDS011;70170;47.856;10.956;2023-08-07T03:23:54;1.30;;;1.23;;
80778;SDS011;70170;47.856;10.956;2023-08-07T03:26:20;1.42;;;1.30;;
80778;SDS011;70170;47.856;10.956;2023-08-07T03:28:45;2.17;;;1.48;;
80778;SDS011;70170;47.856;10.956;2023-08-07T03:31:13;2.28;;;1.50;;
80778;SDS011;70170;47.856;10.956;2023-08-07T03:33:39;1.40;;;1.27;;
80778;SDS011;70170;47.856;10.956;2023-08-07T03:36:04;1.42;;;1.33;;
80778;SDS011;70170;47.856;10.956;2023-08-07T03:38:29;2.88;;;1.75;;
80778;SDS011;70170;47.856;10.956;2023-08-07T03:40:55;6.00;;;1.90;;
80778;SDS011;70170;47.856;10.956;2023-08-07T03:43:20;2.78;;;1.42;;
80778;SDS011;70170;47.856;10.956;2023-08-07T03:45:45;1.75;;;1.55;;
80778;SDS011;70170;47.856;10.956;2023-08-07T03:48:11;4.20;;;1.63;;
80778;SDS011;70170;47.856;10.956;2023-08-07T03:50:36;5.18;;;1.90;;
80778;SDS011;70170;47.856;10.956;2023-08-07T03:53:03;1.50;;;1.40;;
80778;SDS011;70170;47.856;10.956;2023-08-07T03:55:29;2.72;;;1.63;;
80778;SDS011;70170;47.856;10.956;2023-08-07T03:57:54;4.85;;;1.65;;
80778;SDS011;70170;47.856;10.956;2023-08-07T04:00:20;3.58;;;1.80;;
80778;SDS011;70170;47.856;10.956;2023-08-07T04:02:45;2.60;;;1.65;;
80778;SDS011;70170;47.856;10.956;2023-08-07T04:05:11;1.88;;;1.30;;
80778;SDS011;70170;47.856;10.956;2023-08-07T04:07:36;2.35;;;1.77;;
80778;SDS011;70170;47.856;10.956;2023-08-07T04:10:01;1.48;;;1.38;;
80778;SDS011;70170;47.856;10.956;2023-08-07T04:12:27;1.20;;;1.20;;
80778;SDS011;70170;47.856;10.956;2023-08-07T04:14:52;2.53;;;1.70;;
80778;SDS011;70170;47.856;10.956;2023-08-07T04:17:17;3.10;;;1.50;;
80778;SDS011;70170;47.856;10.956;2023-08-07T04:19:43;3.03;;;2.10;;
80778;SDS011;70170;47.856;10.956;2023-08-07T04:22:08;2.65;;;1.42;;
80778;SDS011;70170;47.856;10.956;2023-08-07T04:24:33;1.70;;;1.55;;
80778;SDS011;70170;47.856;10.956;2023-08-07T04:26:59;2.70;;;1.33;;
80778;SDS011;70170;47.856;10.956;2023-08-07T04:29:24;3.38;;;1.92;;
80778;SDS011;70170;47.856;10.956;2023-08-07T04:31:50;1.80;;;1.70;;
80778;SDS011;70170;47.856;10.956;2023-08-07T04:34:15;1.48;;;1.38;;
80778;SDS011;70170;47.856;10.956;2023-08-07T04:36:40;2.95;;;1.27;;
80778;SDS011;70170;47.856;10.956;2023-08-07T04:39:06;1.63;;;1.52;;
80778;SDS011;70170;47.856;10.956;2023-08-07T04:41:32;2.25;;;1.38;;
80778;SDS011;70170;47.856;10.956;2023-08-07T04:43:57;1.60;;;1.50;;
80778;SDS011;70170;47.856;10.956;2023-08-07T04:46:22;2.47;;;1.60;;
80778;SDS011;70170;47.856;10.956;2023-08-07T04:48:48;2.65;;;1.50;;
80778;SDS011;70170;47.856;10.956;2023-08-07T04:51:13;3.50;;;1.90;;
80778;SDS011;70170;47.856;10.956;2023-08-07T04:53:38;4.20;;;1.38;;
80778;SDS011;70170;47.856;10.956;2023-08-07T04:56:04;3.15;;;1.20;;
80778;SDS011;70170;47.856;10.956;2023-08-07T04:58:29;1.95;;;1.40;;
80778;SDS011;70170;47.856;10.956;2023-08-07T05:00:55;1.33;;;1.23;;
80778;SDS011;70170;47.856;10.956;2023-08-07T05:03:21;1.15;;;1.13;;
80778;SDS011;70170;47.856;10.956;2023-08-07T05:05:46;1.70;;;1.38;;
80778;SDS011;70170;47.856;10.956;2023-08-07T05:08:11;2.45;;;1.23;;
80778;SDS011;70170;47.856;10.956;2023-08-07T05:10:37;1.48;;;1.38;;
80778;SDS011;70170;47.856;10.956;2023-08-07T05:13:02;3.30;;;1.50;;
80778;SDS011;70170;47.856;10.956;2023-08-07T05:15:27;5.68;;;1.63;;
80778;SDS011;70170;47.856;10.956;2023-08-07T05:17:54;3.45;;;1.80;;
80778;SDS011;70170;47.856;10.956;2023-08-07T05:20:19;1.52;;;1.38;;
80778;SDS011;70170;47.856;10.956;2023-08-07T05:22:44;1.58;;;1.30;;
80778;SDS011;70170;47.856;10.956;2023-08-07T05:25:10;1.73;;;1.38;;
80778;SDS011;70170;47.856;10.956;2023-08-07T05:27:37;1.65;;;1.40;;
80778;SDS011;70170;47.856;10.956;2023-08-07T05:30:02;7.25;;;1.30;;
80778;SDS011;70170;47.856;10.956;2023-08-07T05:32:28;2.25;;;1.60;;
80778;SDS011;70170;47.856;10.956;2023-08-07T05:34:53;1.25;;;1.23;;
80778;SDS011;70170;47.856;10.956;2023-08-07T05:37:19;1.63;;;1.52;;
80778;SDS011;70170;47.856;10.956;2023-08-07T05:39:44;5.75;;;1.17;;
80778;SDS011;70170;47.856;10.956;2023-08-07T05:42:09;1.27;;;1.17;;
80778;SDS011;70170;47.856;10.956;2023-08-07T05:44:35;1.77;;;1.20;;
80778;SDS011;70170;47.856;10.956;2023-08-07T05:47:00;2.15;;;1.17;;
80778;SDS011;70170;47.856;10.956;2023-08-07T05:49:26;2.47;;;1.30;;
80778;SDS011;70170;47.856;10.956;2023-08-07T05:51:51;3.55;;;1.27;;
80778;SDS011;70170;47.856;10.956;2023-08-07T05:54:17;2.45;;;1.30;;
80778;SDS011;70170;47.856;10.956;2023-08-07T05:56:42;1.33;;;1.13;;
80778;SDS011;70170;47.856;10.956;2023-08-07T05:59:08;1.95;;;1.35;;
80778;SDS011;70170;47.856;10.956;2023-08-07T06:01:33;5.47;;;1.80;;
80778;SDS011;70170;47.856;10.956;2023-08-07T06:03:58;12.23;;;1.30;;
80778;SDS011;70170;47.856;10.956;2023-08-07T06:06:24;1.27;;;1.15;;
80778;SDS011;70170;47.856;10.956;2023-08-07T06:08:50;1.23;;;1.13;;
80778;SDS011;70170;47.856;10.956;2023-08-07T06:11:16;2.47;;;1.42;;
80778;SDS011;70170;47.856;10.956;2023-08-07T06:13:42;1.55;;;1.40;;
80778;SDS011;70170;47.856;10.956;2023-08-07T06:16:07;1.67;;;1.30;;
80778;SDS011;70170;47.856;10.956;2023-08-07T06:18:33;4.75;;;1.50;;
80778;SDS011;70170;47.856;10.956;2023-08-07T06:21:02;3.80;;;1.42;;
80778;SDS011;70170;47.856;10.956;2023-08-07T06:23:28;2.25;;;1.38;;
80778;SDS011;70170;47.856;10.956;2023-08-07T06:25:54;1.30;;;1.20;;
80778;SDS011;70170;47.856;10.956;2023-08-07T06:28:19;1.23;;;1.08;;
80778;SDS011;70170;47.856;10.956;2023-08-07T06:30:44;1.30;;;1.20;;
80778;SDS011;70170;47.856;10.956;2023-08-07T06:33:10;2.50;;;1.48;;
80778;SDS011;70170;47.856;10.956;2023-08-07T06:35:38;1.48;;;1.30;;
80778;SDS011;70170;47.856;10.956;2023-08-07T06:38:04;1.40;;;1.17;;
80778;SDS011;70170;47.856;10.956;2023-08-07T06:40:30;2.55;;;1.05;;
80778;SDS011;70170;47.856;10.956;2023-08-07T06:42:55;2.95;;;1.25;;
80778;SDS011;70170;47.856;10.956;2023-08-07T06:45:20;1.35;;;1.25;;
80778;SDS011;70170;47.856;10.956;2023-08-07T06:47:46;2.10;;;1.30;;
80778;SDS011;70170;47.856;10.956;2023-08-07T06:50:11;5.38;;;1.38;;
80778;SDS011;70170;47.856;10.956;2023-08-07T06:52:38;2.10;;;1.27;;
80778;SDS011;70170;47.856;10.956;2023-08-07T06:55:03;1.65;;;1.38;;
80778;SDS011;70170;47.856;10.956;2023-08-07T06:57:29;1.67;;;1.30;;
80778;SDS011;70170;47.856;10.956;2023-08-07T06:59:54;2.25;;;1.33;;
80778;SDS011;70170;47.856;10.956;2023-08-07T07:02:19;2.63;;;1.40;;
80778;SDS011;70170;47.856;10.956;2023-08-07T07:04:45;1.90;;;1.27;;
80778;SDS011;70170;47.856;10.956;2023-08-07T07:07:10;1.33;;;1.23;;
80778;SDS011;70170;47.856;10.956;2023-08-07T07:09:35;1.33;;;1.23;;
80778;SDS011;70170;47.856;10.956;2023-08-07T07:12:01;1.27;;;1.17;;
80778;SDS011;70170;47.856;10.956;2023-08-07T07:14:26;2.92;;;1.42;;
80778;SDS011;70170;47.856;10.956;2023-08-07T07:16:51;1.77;;;1.35;;
80778;SDS011;70170;47.856;10.956;2023-08-07T07:19:17;1.23;;;1.13;;
80778;SDS011;70170;47.856;10.956;2023-08-07T07:21:42;7.63;;;1.65;;
80778;SDS011;70170;47.856;10.956;2023-08-07T07:24:07;2.85;;;1.40;;
80778;SDS011;70170;47.856;10.956;2023-08-07T07:26:32;1.65;;;1.55;;
80778;SDS011;70170;47.856;10.956;2023-08-07T07:28:58;1.75;;;1.20;;
80778;SDS011;70170;47.856;10.956;2023-08-07T07:31:23;4.00;;;1.02;;
80778;SDS011;70170;47.856;10.956;2023-08-07T07:33:48;1.30;;;1.20;;
80778;SDS011;70170;47.856;10.956;2023-08-07T07:36:15;1.20;;;1.10;;
80778;SDS011;70170;47.856;10.956;2023-08-07T07:38:46;1.25;;;1.02;;
80778;SDS011;70170;47.856;10.956;2023-08-07T07:41:12;1.65;;;1.40;;
80778;SDS011;70170;47.856;10.956;2023-08-07T07:43:38;1.23;;;1.17;;
80778;SDS011;70170;47.856;10.956;2023-08-07T07:46:04;1.55;;;1.40;;
80778;SDS011;70170;47.856;10.956;2023-08-07T07:48:29;4.47;;;1.35;;
80778;SDS011;70170;47.856;10.956;2023-08-07T07:50:58;1.92;;;1.30;;
80778;SDS011;70170;47.856;10.956;2023-08-07T07:53:24;1.55;;;1.30;;
80778;SDS011;70170;47.856;10.956;2023-08-07T07:55:50;1.60;;;1.50;;
80778;SDS011;70170;47.856;10.956;2023-08-07T07:58:15;1.50;;;1.23;;
80778;SDS011;70170;47.856;10.956;2023-08-07T08:00:40;0.93;;;0.93;;
80778;SDS011;70170;47.856;10.956;2023-08-07T08:03:06;9.80;;;1.63;;
80778;SDS011;70170;47.856;10.956;2023-08-07T08:05:31;1.40;;;1.30;;
80778;SDS011;70170;47.856;10.956;2023-08-07T08:07:57;1.30;;;1.20;;
80778;SDS011;70170;47.856;10.956;2023-08-07T08:10:22;1.77;;;1.33;;
80778;SDS011;70170;47.856;10.956;2023-08-07T08:12:47;5.57;;;1.60;;
80778;SDS011;70170;47.856;10.956;2023-08-07T08:15:12;1.00;;;1.00;;
80778;SDS011;70170;47.856;10.956;2023-08-07T08:17:38;1.10;;;1.00;;
80778;SDS011;70170;47.856;10.956;2023-08-07T08:20:07;2.28;;;1.20;;
80778;SDS011;70170;47.856;10.956;2023-08-07T08:22:33;4.13;;;1.33;;
80778;SDS011;70170;47.856;10.956;2023-08-07T08:24:58;1.73;;;1.40;;
80778;SDS011;70170;47.856;10.956;2023-08-07T08:27:24;1.65;;;1.15;;
80778;SDS011;70170;47.856;10.956;2023-08-07T08:29:50;1.23;;;1.17;;
80778;SDS011;70170;47.856;10.956;2023-08-07T08:32:15;2.95;;;1.20;;
80778;SDS011;70170;47.856;10.956;2023-08-07T08:34:40;7.13;;;1.52;;
80778;SDS011;70170;47.856;10.956;2023-08-07T08:37:06;3.70;;;2.40;;
80778;SDS011;70170;47.856;10.956;2023-08-07T08:39:31;1.60;;;1.40;;
80778;SDS011;70170;47.856;10.956;2023-08-07T08:41:56;1.27;;;1.20;;
80778;SDS011;70170;47.856;10.956;2023-08-07T08:44:23;1.38;;;1.10;;
80778;SDS011;70170;47.856;10.956;2023-08-07T08:46:49;1.13;;;1.02;;
80778;SDS011;70170;47.856;10.956;2023-08-07T08:49:19;1.90;;;1.20;;
80778;SDS011;70170;47.856;10.956;2023-08-07T08:51:51;1.25;;;1.15;;
80778;SDS011;70170;47.856;10.956;2023-08-07T08:54:16;1.58;;;1.30;;
80778;SDS011;70170;47.856;10.956;2023-08-07T08:56:42;2.28;;;1.23;;
80778;SDS011;70170;47.856;10.956;2023-08-07T08:59:08;0.90;;;0.90;;
80778;SDS011;70170;47.856;10.956;2023-08-07T09:01:34;5.07;;;1.77;;
80778;SDS011;70170;47.856;10.956;2023-08-07T09:04:00;1.17;;;0.90;;
80778;SDS011;70170;47.856;10.956;2023-08-07T09:06:28;1.45;;;1.20;;
80778;SDS011;70170;47.856;10.956;2023-08-07T09:08:56;1.25;;;1.15;;
80778;SDS011;70170;47.856;10.956;2023-08-07T09:11:23;2.25;;;1.27;;
80778;SDS011;70170;47.856;10.956;2023-08-07T09:13:49;1.25;;;1.17;;
80778;SDS011;70170;47.856;10.956;2023-08-07T09:16:14;2.38;;;1.40;;
80778;SDS011;70170;47.856;10.956;2023-08-07T09:18:41;1.27;;;1.17;;
80778;SDS011;70170;47.856;10.956;2023-08-07T09:21:07;1.25;;;1.17;;
80778;SDS011;70170;47.856;10.956;2023-08-07T09:23:32;1.98;;;0.88;;
80778;SDS011;70170;47.856;10.956;2023-08-07T09:26:01;1.40;;;1.25;;
80778;SDS011;70170;47.856;10.956;2023-08-07T09:28:29;1.05;;;0.90;;
80778;SDS011;70170;47.856;10.956;2023-08-07T09:30:58;3.28;;;1.20;;
80778;SDS011;70170;47.856;10.956;2023-08-07T09:33:24;1.40;;;1.17;;
80778;SDS011;70170;47.856;10.956;2023-08-07T09:35:57;1.17;;;1.00;;
80778;SDS011;70170;47.856;10.956;2023-08-07T09:38:23;1.27;;;1.13;;
80778;SDS011;70170;47.856;10.956;2023-08-07T09:40:49;2.10;;;1.13;;
80778;SDS011;70170;47.856;10.956;2023-08-07T09:43:21;1.13;;;1.10;;
80778;SDS011;70170;47.856;10.956;2023-08-07T09:45:47;1.58;;;1.10;;
80778;SDS011;70170;47.856;10.956;2023-08-07T09:48:15;2.80;;;1.00;;
80778;SDS011;70170;47.856;10.956;2023-08-07T09:50:47;0.80;;;0.80;;
80778;SDS011;70170;47.856;10.956;2023-08-07T09:53:13;1.52;;;1.42;;
80778;SDS011;70170;47.856;10.956;2023-08-07T09:55:38;2.30;;;1.42;;
80778;SDS011;70170;47.856;10.956;2023-08-07T09:58:04;1.23;;;1.13;;
80778;SDS011;70170;47.856;10.956;2023-08-07T10:00:36;1.33;;;1.20;;
80778;SDS011;70170;47.856;10.956;2023-08-07T10:03:01;1.58;;;1.25;;
80778;SDS011;70170;47.856;10.956;2023-08-07T10:05:26;2.03;;;1.10;;
80778;SDS011;70170;47.856;10.956;2023-08-07T10:07:52;2.25;;;1.20;;
80778;SDS011;70170;47.856;10.956;2023-08-07T10:10:19;1.30;;;1.20;;
80778;SDS011;70170;47.856;10.956;2023-08-07T10:12:46;1.13;;;1.02;;
80778;SDS011;70170;47.856;10.956;2023-08-07T10:15:13;4.63;;;1.65;;
80778;SDS011;70170;47.856;10.956;2023-08-07T10:17:42;6.10;;;1.20;;
80778;SDS011;70170;47.856;10.956;2023-08-07T10:20:09;1.77;;;1.13;;
80778;SDS011;70170;47.856;10.956;2023-08-07T10:22:43;1.10;;;1.10;;
80778;SDS011;70170;47.856;10.956;2023-08-07T10:25:41;1.83;;;1.20;;
80778;SDS011;70170;47.856;10.956;2023-08-07T10:28:09;1.30;;;1.20;;
80778;SDS011;70170;47.856;10.956;2023-08-07T10:30:37;3.17;;;1.40;;
80778;SDS011;70170;47.856;10.956;2023-08-07T10:33:03;2.55;;;0.93;;
80778;SDS011;70170;47.856;10.956;2023-08-07T10:35:31;1.50;;;1.15;;
80778;SDS011;70170;47.856;10.956;2023-08-07T10:38:12;1.75;;;1.40;;
80778;SDS011;70170;47.856;10.956;2023-08-07T10:43:48;1.40;;;1.30;;
80778;SDS011;70170;47.856;10.956;2023-08-07T10:46:46;0.90;;;0.90;;
80778;SDS011;70170;47.856;10.956;2023-08-07T10:49:41;1.17;;;1.05;;
80778;SDS011;70170;47.856;10.956;2023-08-07T10:55:53;0.93;;;0.90;;
80778;SDS011;70170;47.856;10.956;2023-08-07T10:58:24;1.30;;;0.70;;
80778;SDS011;70170;47.856;10.956;2023-08-07T11:07:55;1.05;;;0.80;;
80778;SDS011;70170;47.856;10.956;2023-08-07T11:10:31;2.38;;;1.13;;
80778;SDS011;70170;47.856;10.956;2023-08-07T11:14:07;1.10;;;0.70;;
80778;SDS011;70170;47.856;10.956;2023-08-07T11:17:00;0.80;;;0.80;;
80778;SDS011;70170;47.856;10.956;2023-08-07T11:20:03;1.88;;;0.90;;
80778;SDS011;70170;47.856;10.956;2023-08-07T11:22:53;0.80;;;0.80;;
80778;SDS011;70170;47.856;10.956;2023-08-07T11:28:12;2.05;;;0.90;;
80778;SDS011;70170;47.856;10.956;2023-08-07T11:30:39;1.00;;;1.00;;
80778;SDS011;70170;47.856;10.956;2023-08-07T11:33:11;1.17;;;0.70;;
80778;SDS011;70170;47.856;10.956;2023-08-07T11:36:02;0.70;;;0.70;;
80778;SDS011;70170;47.856;10.956;2023-08-07T11:39:28;0.80;;;0.80;;
80778;SDS011;70170;47.856;10.956;2023-08-07T11:42:01;0.73;;;0.73;;
80778;SDS011;70170;47.856;10.956;2023-08-07T11:44:32;0.98;;;0.98;;
80778;SDS011;70170;47.856;10.956;2023-08-07T11:46:59;0.90;;;0.90;;
80778;SDS011;70170;47.856;10.956;2023-08-07T11:50:05;0.85;;;0.85;;
80778;SDS011;70170;47.856;10.956;2023-08-07T11:52:31;0.82;;;0.82;;
80778;SDS011;70170;47.856;10.956;2023-08-07T11:54:57;1.80;;;1.00;;
80778;SDS011;70170;47.856;10.956;2023-08-07T11:57:22;0.60;;;0.60;;
80778;SDS011;70170;47.856;10.956;2023-08-07T11:59:49;1.00;;;1.00;;
80778;SDS011;70170;47.856;10.956;2023-08-07T12:02:24;0.77;;;0.77;;
80778;SDS011;70170;47.856;10.956;2023-08-07T12:04:50;1.30;;;0.80;;
80778;SDS011;70170;47.856;10.956;2023-08-07T12:07:21;0.88;;;0.88;;
80778;SDS011;70170;47.856;10.956;2023-08-07T12:10:16;0.90;;;0.90;;
80778;SDS011;70170;47.856;10.956;2023-08-07T12:13:19;0.80;;;0.80;;
80778;SDS011;70170;47.856;10.956;2023-08-07T12:16:03;6.65;;;1.00;;
80778;SDS011;70170;47.856;10.956;2023-08-07T12:18:34;0.90;;;0.90;;
80778;SDS011;70170;47.856;10.956;2023-08-07T12:21:03;4.72;;;1.02;;
80778;SDS011;70170;47.856;10.956;2023-08-07T12:26:26;1.15;;;0.90;;
80778;SDS011;70170;47.856;10.956;2023-08-07T12:28:52;1.15;;;1.05;;
80778;SDS011;70170;47.856;10.956;2023-08-07T12:31:18;0.90;;;0.90;;
80778;SDS011;70170;47.856;10.956;2023-08-07T12:33:44;0.93;;;0.90;;
80778;SDS011;70170;47.856;10.956;2023-08-07T12:36:09;0.95;;;0.95;;
80778;SDS011;70170;47.856;10.956;2023-08-07T12:38:35;1.02;;;0.95;;
80778;SDS011;70170;47.856;10.956;2023-08-07T12:41:01;1.60;;;1.00;;
80778;SDS011;70170;47.856;10.956;2023-08-07T12:43:28;1.05;;;0.95;;
80778;SDS011;70170;47.856;10.956;2023-08-07T12:45:53;0.90;;;0.90;;
80778;SDS011;70170;47.856;10.956;2023-08-07T12:48:19;1.05;;;0.80;;
80778;SDS011;70170;47.856;10.956;2023-08-07T12:50:44;1.10;;;1.00;;
80778;SDS011;70170;47.856;10.956;2023-08-07T12:53:10;1.15;;;1.00;;
80778;SDS011;70170;47.856;10.956;2023-08-07T12:55:36;1.00;;;1.00;;
80778;SDS011;70170;47.856;10.956;2023-08-07T12:58:01;0.77;;;0.77;;
80778;SDS011;70170;47.856;10.956;2023-08-07T13:00:27;0.80;;;0.80;;
80778;SDS011;70170;47.856;10.956;2023-08-07T13:02:52;0.93;;;0.93;;
80778;SDS011;70170;47.856;10.956;2023-08-07T13:05:20;0.93;;;0.90;;
80778;SDS011;70170;47.856;10.956;2023-08-07T13:07:46;0.80;;;0.80;;
80778;SDS011;70170;47.856;10.956;2023-08-07T13:10:13;0.80;;;0.80;;
80778;SDS011;70170;47.856;10.956;2023-08-07T13:12:41;0.80;;;0.80;;
80778;SDS011;70170;47.856;10.956;2023-08-07T13:15:09;2.42;;;0.80;;
80778;SDS011;70170;47.856;10.956;2023-08-07T13:17:41;0.80;;;0.80;;
80778;SDS011;70170;47.856;10.956;2023-08-07T13:20:07;0.90;;;0.90;;
80778;SDS011;70170;47.856;10.956;2023-08-07T13:22:35;1.38;;;0.95;;
80778;SDS011;70170;47.856;10.956;2023-08-07T13:25:08;0.93;;;0.93;;
80778;SDS011;70170;47.856;10.956;2023-08-07T13:27:34;1.48;;;1.00;;
80778;SDS011;70170;47.856;10.956;2023-08-07T13:30:00;1.10;;;1.00;;
80778;SDS011;70170;47.856;10.956;2023-08-07T13:32:26;1.35;;;1.05;;
80778;SDS011;70170;47.856;10.956;2023-08-07T13:34:52;1.65;;;0.98;;
80778;SDS011;70170;47.856;10.956;2023-08-07T13:37:18;2.00;;;0.95;;
80778;SDS011;70170;47.856;10.956;2023-08-07T13:39:43;3.55;;;0.80;;
80778;SDS011;70170;47.856;10.956;2023-08-07T13:42:09;0.98;;;0.98;;
80778;SDS011;70170;47.856;10.956;2023-08-07T13:44:35;2.15;;;1.02;;
80778;SDS011;70170;47.856;10.956;2023-08-07T13:47:01;0.85;;;0.85;;
80778;SDS011;70170;47.856;10.956;2023-08-07T13:49:26;0.98;;;0.98;;
80778;SDS011;70170;47.856;10.956;2023-08-07T13:51:52;0.90;;;0.70;;
80778;SDS011;70170;47.856;10.956;2023-08-07T13:54:17;0.82;;;0.82;;
80778;SDS011;70170;47.856;10.956;2023-08-07T13:56:42;1.33;;;1.23;;
80778;SDS011;70170;47.856;10.956;2023-08-07T13:59:08;1.05;;;0.80;;
80778;SDS011;70170;47.856;10.956;2023-08-07T14:01:34;7.32;;;0.98;;
80778;SDS011;70170;47.856;10.956;2023-08-07T14:04:00;0.80;;;0.80;;
80778;SDS011;70170;47.856;10.956;2023-08-07T14:06:26;0.80;;;0.70;;
80778;SDS011;70170;47.856;10.956;2023-08-07T14:08:51;0.80;;;0.80;;
80778;SDS011;70170;47.856;10.956;2023-08-07T14:11:17;0.80;;;0.80;;
80778;SDS011;70170;47.856;10.956;2023-08-07T14:13:44;0.70;;;0.68;;
80778;SDS011;70170;47.856;10.956;2023-08-07T14:16:10;0.85;;;0.68;;
80778;SDS011;70170;47.856;10.956;2023-08-07T14:18:36;1.38;;;0.93;;
80778;SDS011;70170;47.856;10.956;2023-08-07T14:21:01;0.85;;;0.80;;
80778;SDS011;70170;47.856;10.956;2023-08-07T14:23:26;0.90;;;0.90;;
80778;SDS011;70170;47.856;10.956;2023-08-07T14:25:52;0.80;;;0.73;;
80778;SDS011;70170;47.856;10.956;2023-08-07T14:28:18;0.77;;;0.77;;
80778;SDS011;70170;47.856;10.956;2023-08-07T14:30:43;3.83;;;0.70;;
80778;SDS011;70170;47.856;10.956;2023-08-07T14:33:09;0.70;;;0.70;;
80778;SDS011;70170;47.856;10.956;2023-08-07T14:35:34;2.38;;;1.10;;
80778;SDS011;70170;47.856;10.956;2023-08-07T14:37:59;0.80;;;0.80;;
80778;SDS011;70170;47.856;10.956;2023-08-07T14:40:25;1.10;;;1.00;;
80778;SDS011;70170;47.856;10.956;2023-08-07T14:42:51;0.90;;;0.90;;
80778;SDS011;70170;47.856;10.956;2023-08-07T14:45:17;0.93;;;0.93;;
80778;SDS011;70170;47.856;10.956;2023-08-07T14:47:43;0.93;;;0.80;;
80778;SDS011;70170;47.856;10.956;2023-08-07T14:50:08;1.20;;;1.10;;
80778;SDS011;70170;47.856;10.956;2023-08-07T14:52:34;0.75;;;0.75;;
80778;SDS011;70170;47.856;10.956;2023-08-07T14:55:00;1.05;;;0.90;;
80778;SDS011;70170;47.856;10.956;2023-08-07T14:57:26;0.70;;;0.70;;
80778;SDS011;70170;47.856;10.956;2023-08-07T14:59:51;0.60;;;0.60;;